Redfield, Arkansas
Current Conditions -  °F | °C
As of 2:53 AM on Wednesday 22 Oct 2014 (Local Time) from KLIT Reporting Station
Clear Clear  
Wind Chill: 12°   Ceiling: Unl
Heat Index: 12°   Visibility: 10mi
Dew Point:   Wind: 0mph
Humidity: 83%   Direction: NA
Pressure: 30.14"   Gusts: NA
Location:  34.45°N, 92.18°W
Report Text: KLIT 220753Z 00000KT 10SM CLR 12/09 A3014 RMK AO2 SLP205 T01220094
Loading
Personal Weather Stations






























Interactive Weather Map
Tropical Storm Tracking
New forecast layout! Learn more

10-Day Weather Forecast

Advertisements
Track Severe Weather on mobile